createdAt,value
2022-12-14T00:01:40.486Z,98667.63
2022-12-14T00:04:07.542Z,98652.34
2022-12-14T00:06:34.296Z,98677.16
2022-12-14T00:09:05.753Z,98664.50
2022-12-14T00:11:36.104Z,98677.84
2022-12-14T00:14:04.425Z,98664.97
2022-12-14T00:16:34.491Z,98650.44
2022-12-14T00:19:04.456Z,98650.38
2022-12-14T00:21:33.740Z,98662.28
2022-12-14T00:24:02.938Z,98650.13
2022-12-14T00:26:33.469Z,98666.94
2022-12-14T00:29:01.832Z,98632.66
2022-12-14T00:31:29.786Z,98633.97
2022-12-14T00:33:56.689Z,98609.97
2022-12-14T00:36:23.760Z,98616.91
2022-12-14T00:38:50.612Z,98625.28
2022-12-14T00:41:27.742Z,98635.56
2022-12-14T00:43:54.386Z,98610.94
2022-12-14T00:46:23.359Z,98604.19
2022-12-14T00:48:50.331Z,98599.13
2022-12-14T00:51:17.221Z,98603.50
2022-12-14T00:53:45.008Z,98620.56
2022-12-14T00:56:12.202Z,98607.22
2022-12-14T00:58:39.423Z,98621.44
2022-12-14T01:01:08.911Z,98606.47
2022-12-14T01:03:36.130Z,98586.31
2022-12-14T01:06:42.204Z,98581.28
2022-12-14T01:09:16.300Z,98601.16
2022-12-14T01:11:54.050Z,98576.09
2022-12-14T01:14:21.655Z,98577.66
2022-12-14T01:16:48.472Z,98583.81
2022-12-14T01:19:16.093Z,98585.97
2022-12-14T01:21:45.406Z,98592.91
2022-12-14T01:24:15.355Z,98581.66
2022-12-14T01:26:42.186Z,98592.78
2022-12-14T01:29:11.543Z,98597.78
2022-12-14T01:31:39.037Z,98578.09
2022-12-14T01:34:08.443Z,98568.53
2022-12-14T01:36:37.959Z,98595.22
2022-12-14T01:39:09.700Z,98579.84
2022-12-14T01:41:56.742Z,98558.44
2022-12-14T01:44:23.613Z,98576.28
2022-12-14T01:47:43.447Z,98547.59
2022-12-14T01:50:34.193Z,98565.88
2022-12-14T01:53:05.124Z,98557.25
2022-12-14T01:55:40.456Z,98557.91
2022-12-14T01:58:10.854Z,98565.03
2022-12-14T02:00:38.491Z,98562.53
2022-12-14T02:03:31.540Z,98545.72
2022-12-14T02:06:03.123Z,98540.69
2022-12-14T02:08:30.539Z,98541.41
2022-12-14T02:10:58.100Z,98526.81
2022-12-14T02:13:34.824Z,98521.72
2022-12-14T02:19:01.912Z,98538.84
2022-12-14T02:22:03.912Z,98538.25
2022-12-14T02:25:08.926Z,98549.28
2022-12-14T02:27:56.842Z,98534.84
2022-12-14T02:30:25.863Z,98515.41
2022-12-14T02:33:04.559Z,98522.03
2022-12-14T02:35:38.148Z,98528.91
2022-12-14T02:38:23.722Z,98515.66
2022-12-14T02:41:17.602Z,98518.34
2022-12-14T02:43:54.402Z,98514.94
2022-12-14T02:46:29.498Z,98519.16
2022-12-14T02:48:59.097Z,98512.22
2022-12-14T02:51:47.918Z,98489.31
2022-12-14T02:54:21.238Z,98498.53
2022-12-14T02:56:52.852Z,98518.63
2022-12-14T02:59:23.876Z,98487.91
2022-12-14T03:01:58.098Z,98495.63
2022-12-14T03:04:25.289Z,98491.88
2022-12-14T03:07:00.568Z,98491.06
2022-12-14T03:09:29.242Z,98507.94
2022-12-14T03:12:03.804Z,98482.63
2022-12-14T03:14:40.962Z,98492.69
2022-12-14T03:17:17.629Z,98484.94
2022-12-14T03:19:53.621Z,98475.69
2022-12-14T03:22:29.171Z,98471.28
2022-12-14T03:25:00.703Z,98459.41
2022-12-14T03:27:31.468Z,98469.00
2022-12-14T03:30:03.861Z,98485.38
2022-12-14T03:32:32.510Z,98486.19
2022-12-14T03:35:06.902Z,98465.03
2022-12-14T03:37:59.617Z,98488.50
2022-12-14T03:40:58.749Z,98451.44
2022-12-14T03:43:27.889Z,98479.41
2022-12-14T03:46:04.632Z,98458.31
2022-12-14T03:48:40.054Z,98475.81
2022-12-14T03:51:24.253Z,98471.53
2022-12-14T03:54:27.449Z,98462.97
2022-12-14T03:57:00.465Z,98445.25
2022-12-14T03:59:33.636Z,98463.16
2022-12-14T04:02:25.543Z,98442.25
2022-12-14T04:05:06.946Z,98437.38
2022-12-14T04:07:48.598Z,98439.72
2022-12-14T04:10:37.656Z,98456.38
2022-12-14T04:13:36.620Z,98424.94
2022-12-14T04:16:32.081Z,98425.41
2022-12-14T04:19:00.766Z,98407.66
2022-12-14T04:21:50.069Z,98400.72
2022-12-14T04:24:54.899Z,98410.13
2022-12-14T04:28:01.690Z,98397.78
2022-12-14T04:33:38.408Z,98392.72
2022-12-14T04:36:05.619Z,98398.56
2022-12-14T04:38:35.933Z,98390.84
2022-12-14T04:41:09.408Z,98402.59
2022-12-14T04:43:40.111Z,98416.13
2022-12-14T04:46:10.913Z,98425.03
2022-12-14T04:48:45.243Z,98426.59
2022-12-14T04:51:34.297Z,98450.63
2022-12-14T04:54:15.951Z,98437.31
2022-12-14T04:57:05.429Z,98417.66
2022-12-14T04:59:32.620Z,98419.22
2022-12-14T05:02:16.745Z,98417.34
2022-12-14T05:04:55.340Z,98445.78
2022-12-14T05:07:40.416Z,98418.34
2022-12-14T05:10:16.118Z,98419.06
2022-12-14T05:12:56.537Z,98414.91
2022-12-14T05:15:27.270Z,98414.75
2022-12-14T05:17:54.585Z,98409.00
2022-12-14T05:20:47.072Z,98436.94
2022-12-14T05:23:14.513Z,98421.56
2022-12-14T05:25:41.762Z,98418.00
2022-12-14T05:28:10.281Z,98431.63
2022-12-14T05:30:37.440Z,98417.34
2022-12-14T05:33:04.628Z,98415.97
2022-12-14T05:35:34.177Z,98417.59
2022-12-14T05:38:02.324Z,98423.44
2022-12-14T05:40:29.449Z,98428.44
2022-12-14T05:43:07.218Z,98436.56
2022-12-14T05:45:34.119Z,98430.91
2022-12-14T05:48:01.071Z,98418.25
2022-12-14T05:50:31.378Z,98423.09
2022-12-14T05:52:58.352Z,98412.25
2022-12-14T05:55:25.320Z,98403.63
2022-12-14T05:57:52.284Z,98389.03
2022-12-14T06:00:20.062Z,98411.50
2022-12-14T06:02:47.288Z,98386.88
2022-12-14T06:05:14.517Z,98374.16
2022-12-14T06:07:41.359Z,98368.41
2022-12-14T06:10:11.365Z,98367.44
2022-12-14T06:12:38.363Z,98369.31
2022-12-14T06:15:05.586Z,98366.28
2022-12-14T06:17:32.396Z,98356.69
2022-12-14T06:19:59.501Z,98373.16
2022-12-14T06:22:26.310Z,98344.16
2022-12-14T06:24:53.113Z,98362.06
2022-12-14T06:27:20.291Z,98351.16
2022-12-14T06:42:54.614Z,98307.34
2022-12-14T06:45:44.996Z,98303.63
2022-12-14T06:48:43.810Z,98289.44
2022-12-14T07:09:26.171Z,98256.56
2022-12-14T07:12:16.791Z,98259.25
2022-12-14T07:14:50.460Z,98244.47
2022-12-14T08:53:53.967Z,98319.72
2022-12-14T08:56:23.192Z,98307.56
2022-12-14T08:58:49.598Z,98308.69
2022-12-14T09:01:18.364Z,98302.94
2022-12-14T09:03:45.620Z,98296.06
2022-12-14T09:06:14.110Z,98307.28
2022-12-14T09:08:41.064Z,98305.78
2022-12-14T09:11:10.606Z,98320.59
2022-12-14T09:13:38.960Z,98309.28
2022-12-14T09:16:08.371Z,98313.03
2022-12-14T09:18:35.134Z,98302.81
2022-12-14T09:21:01.647Z,98294.97
2022-12-14T09:23:29.897Z,98313.75
2022-12-14T09:26:12.889Z,98293.91
2022-12-14T09:28:40.720Z,98288.00
2022-12-14T09:31:10.912Z,98288.00
2022-12-14T09:33:37.663Z,98286.97
2022-12-14T09:36:07.446Z,98277.56
2022-12-14T09:38:35.787Z,98267.84
2022-12-14T09:41:07.288Z,98277.53
2022-12-14T09:43:39.118Z,98272.25
2022-12-14T09:46:26.018Z,98271.22
2022-12-14T09:48:53.734Z,98265.38
2022-12-14T09:51:21.598Z,98279.53
2022-12-14T09:53:51.175Z,98275.13
2022-12-14T09:56:19.170Z,98271.81
2022-12-14T09:58:53.720Z,98264.38
2022-12-14T10:01:23.359Z,98270.00
2022-12-14T10:04:02.434Z,98268.69
2022-12-14T10:06:46.671Z,98270.22
2022-12-14T10:09:28.721Z,98280.53
2022-12-14T10:12:07.825Z,98282.72
2022-12-14T10:15:02.405Z,98259.63
2022-12-14T10:17:50.583Z,98263.78
2022-12-14T10:20:24.288Z,98259.28
2022-12-14T10:22:54.931Z,98257.59
2022-12-14T10:25:31.560Z,98270.94
2022-12-14T10:28:11.858Z,98263.44
2022-12-14T10:30:40.418Z,98256.91
2022-12-14T10:33:30.334Z,98263.91
2022-12-14T10:36:16.391Z,98248.00
2022-12-14T10:38:58.503Z,98260.75
2022-12-14T10:41:30.893Z,98259.22
2022-12-14T10:44:06.652Z,98253.41
2022-12-14T10:46:33.169Z,98252.28
2022-12-14T10:49:17.269Z,98248.84
2022-12-14T10:51:47.994Z,98255.84
2022-12-14T10:54:44.782Z,98259.22
2022-12-14T10:57:18.034Z,98269.75
2022-12-14T11:00:03.370Z,98272.75
2022-12-14T11:02:38.845Z,98271.16
2022-12-14T11:05:37.338Z,98267.78
2022-12-14T11:08:08.309Z,98274.16
2022-12-14T11:10:36.861Z,98274.59
2022-12-14T11:13:13.358Z,98274.09
2022-12-14T11:15:45.307Z,98275.34
2022-12-14T11:18:11.745Z,98267.38
2022-12-14T11:20:48.932Z,98254.94
2022-12-14T11:23:22.393Z,98251.44
2022-12-14T11:25:50.887Z,98263.06
2022-12-14T11:28:38.279Z,98265.50
2022-12-14T11:31:06.735Z,98258.66
2022-12-14T11:33:38.544Z,98260.19
2022-12-14T11:36:06.728Z,98279.63
2022-12-14T11:38:33.485Z,98263.44
2022-12-14T11:41:07.220Z,98263.72
2022-12-14T11:43:40.220Z,98260.97
2022-12-14T11:46:07.090Z,98254.47
2022-12-14T11:48:36.743Z,98241.81
2022-12-14T11:51:13.560Z,98241.53
2022-12-14T11:53:40.906Z,98240.91
2022-12-14T11:56:12.712Z,98247.78
2022-12-14T11:58:46.957Z,98250.38
2022-12-14T12:01:16.600Z,98237.19
2022-12-14T12:03:48.970Z,98231.22
2022-12-14T12:06:19.824Z,98229.50
2022-12-14T12:08:46.484Z,98230.25
2022-12-14T12:11:21.384Z,98230.78
2022-12-14T12:13:51.653Z,98235.47
2022-12-14T12:16:21.356Z,98242.97
2022-12-14T12:18:49.881Z,98240.03
2022-12-14T12:21:22.213Z,98247.94
2022-12-14T12:23:57.758Z,98242.66
2022-12-14T12:26:30.811Z,98238.44
2022-12-14T12:29:05.964Z,98238.38
2022-12-14T12:31:42.030Z,98247.31
2022-12-14T12:34:14.310Z,98241.03
2022-12-14T12:36:56.936Z,98247.06
2022-12-14T12:39:27.375Z,98247.91
2022-12-14T12:42:08.842Z,98252.50
2022-12-14T12:44:50.006Z,98244.44
2022-12-14T12:47:38.501Z,98251.16
2022-12-14T12:50:17.743Z,98251.16
2022-12-14T12:53:03.988Z,98253.75
2022-12-14T12:55:35.470Z,98252.75
2022-12-14T12:58:03.073Z,98253.69
2022-12-14T13:00:30.511Z,98264.44
2022-12-14T13:03:18.877Z,98268.16
2022-12-14T13:05:48.509Z,98261.53
2022-12-14T13:08:26.377Z,98272.53
2022-12-14T13:11:24.484Z,98266.75
2022-12-14T13:13:45.618Z,98265.16
2022-12-14T13:16:34.759Z,98277.09
2022-12-14T13:19:40.305Z,98276.78
2022-12-14T13:21:58.135Z,98271.47
2022-12-14T13:24:30.012Z,98273.06
2022-12-14T13:27:17.657Z,98279.72
2022-12-14T13:29:52.557Z,98278.06
2022-12-14T13:32:39.585Z,98295.16
2022-12-14T13:35:26.306Z,98293.94
2022-12-14T13:38:05.034Z,98298.88
2022-12-14T13:40:53.242Z,98302.34
2022-12-14T13:43:34.842Z,98294.63
2022-12-14T13:46:14.947Z,98302.63
2022-12-14T13:48:42.793Z,98300.78
2022-12-14T13:51:20.968Z,98303.94
2022-12-14T13:53:51.686Z,98295.31
2022-12-14T13:56:27.805Z,98313.00
2022-12-14T13:58:59.988Z,98307.75
2022-12-14T14:01:48.380Z,98314.47
2022-12-14T14:04:19.254Z,98311.59
2022-12-14T14:06:49.659Z,98321.16
2022-12-14T14:09:34.545Z,98326.06
2022-12-14T14:12:24.019Z,98319.38
2022-12-14T14:15:03.240Z,98323.19
2022-12-14T14:17:40.087Z,98322.22
2022-12-14T14:20:34.339Z,98327.25
2022-12-14T14:23:16.110Z,98336.94
2022-12-14T14:25:48.611Z,98344.94
2022-12-14T14:28:22.453Z,98340.25
2022-12-14T14:30:52.065Z,98343.91
2022-12-14T14:33:46.588Z,98344.97
2022-12-14T14:36:21.030Z,98349.22
2022-12-14T14:38:48.019Z,98345.50
2022-12-14T14:41:27.762Z,98346.97
2022-12-14T14:43:57.436Z,98348.38
2022-12-14T14:46:37.290Z,98354.19
2022-12-14T14:49:04.663Z,98353.38
2022-12-14T14:51:34.934Z,98359.69
2022-12-14T14:54:44.905Z,98362.47
2022-12-14T14:57:34.262Z,98353.94
2022-12-14T15:00:02.138Z,98340.16
2022-12-14T15:02:34.124Z,98353.16
2022-12-14T15:05:24.744Z,98347.25
2022-12-14T15:07:48.310Z,98356.53
2022-12-14T15:10:27.247Z,98367.75
2022-12-14T15:13:01.490Z,98374.81
2022-12-14T15:15:37.698Z,98385.38
2022-12-14T15:18:24.834Z,98392.31
2022-12-14T15:20:58.054Z,98391.47
2022-12-14T15:23:25.523Z,98397.72
2022-12-14T15:25:57.018Z,98406.31
2022-12-14T15:28:24.061Z,98407.91
2022-12-14T15:30:50.603Z,98407.66
2022-12-14T15:33:34.839Z,98405.84
2022-12-14T15:36:13.260Z,98411.19
2022-12-14T15:38:39.719Z,98408.56
2022-12-14T15:41:14.948Z,98422.50
2022-12-14T15:43:46.498Z,98435.53
2022-12-14T15:46:31.231Z,98433.50
2022-12-14T15:48:59.757Z,98429.47
2022-12-14T15:51:35.072Z,98431.72
2022-12-14T15:54:02.460Z,98435.81
2022-12-14T15:56:30.299Z,98436.91
2022-12-14T15:59:06.999Z,98451.84
2022-12-14T16:01:40.889Z,98440.09
2022-12-14T16:04:10.855Z,98435.41
2022-12-14T16:06:40.673Z,98445.25
2022-12-14T16:09:37.919Z,98446.03
2022-12-14T16:12:23.786Z,98461.78
2022-12-14T16:14:56.749Z,98462.50
2022-12-14T16:17:28.949Z,98477.81
2022-12-14T16:19:59.888Z,98474.97
2022-12-14T16:22:30.720Z,98479.25
2022-12-14T16:25:17.044Z,98472.38
2022-12-14T16:27:49.740Z,98481.63
2022-12-14T16:30:29.862Z,98489.41
2022-12-14T16:33:19.208Z,98491.38
2022-12-14T16:35:47.018Z,98501.66
2022-12-14T16:38:17.636Z,98514.28
2022-12-14T16:41:00.450Z,98505.53
2022-12-14T16:43:35.655Z,98509.66
2022-12-14T16:46:05.308Z,98519.00
2022-12-14T16:48:33.013Z,98516.34
2022-12-14T16:51:58.215Z,98522.47
2022-12-14T16:54:24.262Z,98526.78
2022-12-14T16:56:54.972Z,98538.06
2022-12-14T16:59:32.910Z,98534.47
2022-12-14T17:01:59.768Z,98538.69
2022-12-14T17:04:33.673Z,98537.97
2022-12-14T17:07:00.745Z,98543.28
2022-12-14T17:09:29.003Z,98540.00
2022-12-14T17:12:00.986Z,98545.28
2022-12-14T17:14:28.023Z,98548.03
2022-12-14T17:17:01.337Z,98552.34
2022-12-14T17:19:39.121Z,98551.53
2022-12-14T17:22:24.782Z,98554.38
2022-12-14T17:24:51.322Z,98557.16
2022-12-14T17:27:20.781Z,98551.19
2022-12-14T17:29:47.172Z,98556.63
2022-12-14T17:32:14.891Z,98559.22
2022-12-14T17:34:45.262Z,98550.97
2022-12-14T17:37:16.828Z,98553.94
2022-12-14T17:39:43.391Z,98547.03
2022-12-14T17:42:13.881Z,98560.16
2022-12-14T17:44:42.352Z,98550.19
2022-12-14T17:47:13.120Z,98547.06
2022-12-14T17:49:41.433Z,98544.78
2022-12-14T17:52:15.767Z,98546.88
2022-12-14T17:54:42.254Z,98557.31
2022-12-14T17:57:20.455Z,98558.41
2022-12-14T17:59:47.903Z,98559.22
2022-12-14T18:02:35.149Z,98565.47
2022-12-14T18:05:01.696Z,98576.09
2022-12-14T18:07:28.109Z,98578.03
2022-12-14T18:09:54.640Z,98567.75
2022-12-14T18:12:23.591Z,98577.34
2022-12-14T18:14:50.765Z,98573.41
2022-12-14T18:17:18.636Z,98577.88
2022-12-14T18:19:45.130Z,98575.34
2022-12-14T18:22:14.541Z,98573.66
2022-12-14T18:24:41.078Z,98565.25
2022-12-14T18:27:07.550Z,98575.69
2022-12-14T18:29:34.030Z,98571.53
2022-12-14T18:32:00.658Z,98583.00
2022-12-14T18:34:27.224Z,98584.84
2022-12-14T18:36:53.814Z,98582.38
2022-12-14T18:39:20.251Z,98586.69
2022-12-14T18:41:46.834Z,98582.38
2022-12-14T18:44:13.275Z,98590.22
2022-12-14T18:46:39.763Z,98599.88
2022-12-14T18:49:06.290Z,98601.66
2022-12-14T18:51:32.716Z,98605.19
2022-12-14T18:54:00.006Z,98606.19
2022-12-14T18:56:27.961Z,98613.91
2022-12-14T18:58:54.558Z,98611.44
2022-12-14T19:01:23.994Z,98618.47
2022-12-14T19:03:50.800Z,98616.06
2022-12-14T19:09:08.845Z,98617.66
2022-12-14T19:11:40.020Z,98621.19
2022-12-14T19:14:06.857Z,98625.47
2022-12-14T19:16:33.484Z,98628.91
2022-12-14T19:19:00.596Z,98636.72
2022-12-14T19:21:27.890Z,98629.00
2022-12-14T19:23:55.585Z,98633.28
2022-12-14T19:26:22.031Z,98631.66
2022-12-14T19:28:48.759Z,98638.56
2022-12-14T19:31:15.187Z,98643.78
2022-12-14T19:33:41.814Z,98644.59
2022-12-14T19:36:09.207Z,98656.66
2022-12-14T19:38:36.283Z,98660.06
2022-12-14T19:41:05.549Z,98671.25
2022-12-14T19:43:32.350Z,98669.34
2022-12-14T19:45:59.098Z,98663.59
2022-12-14T19:48:25.552Z,98669.53
2022-12-14T19:50:52.057Z,98665.13
2022-12-14T19:53:23.719Z,98667.69
2022-12-14T19:55:53.716Z,98672.19
2022-12-14T19:58:21.968Z,98668.84
2022-12-14T20:00:49.779Z,98668.03
2022-12-14T20:03:16.591Z,98667.00
2022-12-14T20:05:54.913Z,98664.41
2022-12-14T20:08:22.379Z,98661.84
2022-12-14T20:10:48.963Z,98660.97
2022-12-14T20:13:15.656Z,98660.91
2022-12-14T20:15:48.849Z,98652.25
2022-12-14T20:18:15.319Z,98659.19
2022-12-14T20:20:41.758Z,98656.53
2022-12-14T20:23:08.213Z,98656.59
2022-12-14T20:25:36.733Z,98653.94
2022-12-14T20:28:03.227Z,98661.81
2022-12-14T20:30:30.414Z,98657.53
2022-12-14T20:32:57.026Z,98660.19
2022-12-14T20:35:24.011Z,98661.75
2022-12-14T20:37:53.594Z,98665.94
2022-12-14T20:40:20.028Z,98668.41
2022-12-14T20:42:46.494Z,98668.41
2022-12-14T20:45:12.955Z,98682.22
2022-12-14T20:47:39.418Z,98678.75
2022-12-14T20:50:06.197Z,98674.44
2022-12-14T20:52:32.732Z,98683.06
2022-12-14T20:54:59.405Z,98685.69
2022-12-14T20:57:26.548Z,98682.31
2022-12-14T20:59:53.010Z,98688.41
2022-12-14T21:02:30.254Z,98691.75
2022-12-14T21:04:57.381Z,98683.09
2022-12-14T21:07:26.280Z,98672.25
2022-12-14T21:09:53.687Z,98662.09
2022-12-14T21:12:23.803Z,98664.78
2022-12-14T21:14:54.785Z,98675.91
2022-12-14T21:17:24.546Z,98679.25
2022-12-14T21:19:51.994Z,98670.91
2022-12-14T21:22:23.100Z,98675.22
2022-12-14T21:25:02.878Z,98685.56
2022-12-14T21:27:32.943Z,98680.38
2022-12-14T21:30:03.555Z,98688.78
2022-12-14T21:32:37.791Z,98686.06
2022-12-14T21:35:26.097Z,98707.03
2022-12-14T21:37:55.345Z,98691.63
2022-12-14T21:46:33.656Z,98712.09
2022-12-14T21:49:01.023Z,98707.69
2022-12-14T21:54:19.760Z,98692.97
2022-12-14T21:59:50.596Z,98696.34
2022-12-14T22:02:25.405Z,98689.53
2022-12-14T22:04:58.514Z,98687.97
2022-12-14T22:07:48.234Z,98697.03
2022-12-14T22:10:19.885Z,98695.34
2022-12-14T22:12:51.648Z,98683.44
2022-12-14T22:15:21.288Z,98697.03
2022-12-14T22:18:26.028Z,98707.19
2022-12-14T22:22:03.352Z,98714.91
2022-12-14T22:24:31.905Z,98719.47
2022-12-14T22:26:59.778Z,98721.09
2022-12-14T22:29:31.018Z,98732.03
2022-12-14T22:32:00.247Z,98731.88
2022-12-14T22:34:29.854Z,98726.75
2022-12-14T22:36:58.776Z,98744.41
2022-12-14T22:39:26.286Z,98738.34
2022-12-14T22:41:58.357Z,98731.47
2022-12-14T22:44:25.373Z,98711.81
2022-12-14T22:46:53.476Z,98722.78
2022-12-14T22:49:21.739Z,98733.06
2022-12-14T22:51:51.919Z,98741.56
2022-12-14T22:54:22.891Z,98730.94
2022-12-14T22:57:13.470Z,98742.53
2022-12-14T23:00:07.304Z,98740.19
2022-12-14T23:02:36.169Z,98735.69
2022-12-14T23:05:24.168Z,98740.94
2022-12-14T23:07:51.020Z,98742.53
2022-12-14T23:17:33.110Z,98733.47
2022-12-14T23:20:23.401Z,98732.47
2022-12-14T23:23:13.298Z,98722.94
2022-12-14T23:25:59.325Z,98717.72
2022-12-14T23:32:22.368Z,98714.22
2022-12-14T23:35:13.388Z,98705.75
2022-12-14T23:42:06.167Z,98750.25
2022-12-14T23:44:53.604Z,98754.44
2022-12-14T23:47:42.580Z,98757.78
2022-12-14T23:50:30.446Z,98756.84
2022-12-14T23:53:45.662Z,98757.78
2022-12-14T23:56:40.069Z,98758.91
